AirNav   Air Wisconsin pilot careers
 
 1701 users online  

KMIO Miami Regional Airport
Miami, Oklahoma, USA

GOING TO MIAMI?


FAA INFORMATION EFFECTIVE 21 JUNE 2018

Location

FAA Identifier: MIO
Lat/Long: 36-54-33.2000N / 094-53-15.0000W
36-54.553333N / 094-53.250000W
36.9092222 / -94.8875000
(estimated)
Elevation: 806.4 ft. / 245.8 m (surveyed)
Variation: 05E (1985)
From city: 2 miles NW of MIAMI, OK
Time zone: UTC -5 (UTC -6 during Standard Time)
Zip code: 74354

Airport Operations

Airport use: Open to the public
Activation date: 12/1937
Control tower: no
ARTCC: KANSAS CITY CENTER
FSS: MC ALESTER FLIGHT SERVICE STATION
NOTAMs facility: MLC (NOTAM-D service available)
Attendance: 0800-1700
ARPT UNATNDD THANKSGIVING & CHRISTMAS.
Wind indicator: lighted
Segmented circle: yes
Lights: DUSK-DAWN. ACTVT MIRL RY 17/35 - CTAF.
Beacon: white-green (lighted land airport)
Operates sunset to sunrise.

Airport Communications

CTAF/UNICOM: 122.8
WX AWOS-3 at GMJ (20 nm S): 119.025 (918-786-8350)
  • APCH/DEP SERVICE PROVIDED BY KANSAS CITY ARTCC ON FREQS 128.6/282.325 (EDNA RCAG).

Nearby radio navigation aids

VOR radial/distance  VOR name  Freq  Var
OSWr127/21.2OSWEGO VOR/DME117.6008E
EOSr273/22.1NEOSHO VOR/DME117.3007E

 
NDB name  Hdg/Dist  Freq  Var  ID
COFFEYVILLE104/34.621205ECFV -.-. ..-. ...-

Airport Services

Fuel available: 100LL JET-A
Parking: hangars and tiedowns
Airframe service: MAJOR
Powerplant service: MAJOR
Bottled oxygen: NONE
Bulk oxygen: NONE

Runway Information

Runway 17/35

Dimensions: 5020 x 100 ft. / 1530 x 30 m
Surface: asphalt, in excellent condition
Weight bearing capacity: 
Single wheel: 23.0
Runway edge lights: medium intensity
RUNWAY 17  RUNWAY 35
Latitude: 36-54.966527N36-54.139247N
Longitude: 094-53.246198W094-53.253862W
Elevation: 806.3 ft.799.6 ft.
Gradient: 0.2%0.2%
Traffic pattern: rightleft
Runway heading: 175 magnetic, 180 true355 magnetic, 000 true
Markings: nonprecision, in good conditionnonprecision, in good condition
Visual slope indicator: 2-light PAPI on left (3.00 degrees glide path)2-light PAPI on left (4.00 degrees glide path)
Touchdown point: yes, no lightsyes, no lights
Obstructions: 50 ft. trees, 1550 ft. from runway, 27:1 slope to clearnone

Airport Ownership and Management from official FAA records

Ownership: Publicly-owned
Owner: CITY OF MIAMI
CITY HALL PO BOX 1288
MIAMI, OK 74355
Phone 918-542-6685
Manager: THOMAS ANDERSON
2600 REX PLOTT DR
MIAMI, OK 74355
Phone (918) 541-2303
ALTERNATE PHONE # 918-919-4636.

Airport Operational Statistics

Aircraft based on the field: 27
Single engine airplanes: 24
Multi engine airplanes: 3
    
Aircraft operations: avg 33/day *
67% transient general aviation
33% local general aviation
* for 12-month period ending 16 December 2015

Instrument Procedures

NOTE: All procedures below are presented as PDF files. If you need a reader for these files, you should download the free Adobe Reader.

NOT FOR NAVIGATION. Please procure official charts for flight.
FAA instrument procedures published for use from 21 June 2018 at 0901Z to 19 July 2018 at 0900Z.

 
IAPs - Instrument Approach Procedures
RNAV (GPS) RWY 17 **CHANGED**   download (189KB)
VOR/DME-A **CHANGED**   download (130KB)
NOTE: Special Take-Off Minimums/Departure Procedures apply   download (202KB)

Other nearby airports with instrument procedures:

KGMJ - Grove Municipal Airport (20 nm S)
1K8 - South Grand Lake Regional Airport (23 nm S)
KJLN - Joplin Regional Airport (24 nm NE)
KEOS - Neosho Hugh Robinson Airport (25 nm E)
KPTS - Atkinson Municipal Airport (33 nm N)
 
Loc | Ops | Rwys | IFR | FBO | Links
Com | Nav | Svcs | Stats | Notes


 
Area around KMIO (Miami Regional Airport)
 
Road maps at: MapQuest Bing Google
 
Aerial photo
WARNING: Photo may not be current or correct
Aerial photo of KMIO (Miami Regional Airport)
Do you have a better or more recent aerial photo of Miami Regional Airport that you would like to share? If so, please send us your photo.

 
Sectional chart

 
Airport distance calculator
Flying to Miami Regional Airport? Find the distance to fly.

From to KMIO

Sunrise and sunset
Times for 18-Jul-2018
 Local
(UTC-5)
 Zulu
(UTC)
Morning civil twilight05:4510:45
Sunrise06:1511:15
Sunset20:3601:36
Evening civil twilight21:0602:06

Current date and time
Zulu (UTC)  18-Jul-2018 19:03:35
Local (UTC-5)  18-Jul-2018 14:03:35
 
METAR
KGMJ 
20nm S 
181855Z AUTO 15003KT 10SM SCT085 BKN110 30/22 A2996 RMK AO2
KJLN 
24nm NE 
181853Z 19004KT 10SM SCT033 33/23 A2996 RMK AO2 SLP133 T03280228
KEOS 
25nm E 
SuperAWOS
181755Z AUTO 00000KT 10SM 27/25 A3000
KPTS 
33nm N 
181855Z AUTO 00000KT 10SM SCT040 SCT050 SCT080 31/23 A2995 RMK AO2 T03120232
KCFV 
34nm W 
181852Z AUTO 19006KT 10SM FEW030 32/23 A2992 RMK AO2 SLP122 T03170233
KPPF 
39nm NW 
181852Z AUTO 20005KT 10SM SCT032 BKN039 BKN055 32/24 A2996 RMK AO2 SLP135 T03170239
TAF
KJLN 
24nm NE 
181720Z 1818/1918 18007KT P6SM FEW030 SCT050 TEMPO 1821/1901 4SM TSRA BKN025 OVC050CB FM190100 16006KT P6SM SCT250
NOTAMs
Click for the latest NOTAMs
NOTAMs are issued by the DoD/FAA and will open in a separate window not controlled by AirNav.

 

 
 

FBO, Fuel Providers, and Aircraft Ground Support

  
 Business Name 
 
 Contact 
 
 Services / Description 
 
Fuel Prices
 
Comments
  
Miami Airport 918-541-2290
no information available

If you are affiliated with Miami Airport and would like to show here your services, contact info, web link, logo, and more, click here
100LL Jet A
FS $4.55 $4.10 
SS $4.45 $4.00 
 Updated 13-Jul-2018
 
   3 read write
FS=Full service
SS=Self service
Update Fuel Prices
 

Would you like to see your business listed on this page?

 If your business provides an interesting product or service to pilots, flight crews, aircraft, or users of the Miami Regional Airport, you should consider listing it here.  To start the listing process, click on the button below
 
Add a business
 

Other Pages about Miami Regional Airport

www.miamiokla.net/index.aspx?nid=125
 
Update a link
 
Copyright © AirNav, LLC. All rights reserved. Privacy Policy  Contact